createdAt,value
2023-02-13T00:01:26.811Z,99254.47
2023-02-13T00:03:54.082Z,99252.19
2023-02-13T00:06:21.160Z,99250.88
2023-02-13T00:08:51.716Z,99249.28
2023-02-13T00:11:21.673Z,99231.84
2023-02-13T00:13:48.753Z,99222.31
2023-02-13T00:16:15.609Z,99223.97
2023-02-13T00:18:45.104Z,99222.22
2023-02-13T00:21:12.702Z,99219.75
2023-02-13T00:23:40.097Z,99212.84
2023-02-13T00:26:11.542Z,99205.41
2023-02-13T00:28:43.250Z,99209.69
2023-02-13T00:31:14.419Z,99213.66
2023-02-13T00:33:41.845Z,99206.75
2023-02-13T00:36:12.445Z,99200.00
2023-02-13T00:38:41.345Z,99196.53
2023-02-13T00:41:10.111Z,99197.19
2023-02-13T00:43:40.042Z,99187.28
2023-02-13T00:46:07.106Z,99189.44
2023-02-13T00:48:34.665Z,99173.41
2023-02-13T00:51:04.616Z,99164.34
2023-02-13T00:53:32.139Z,99173.09
2023-02-13T00:55:59.306Z,99171.78
2023-02-13T00:58:26.927Z,99167.16
2023-02-13T01:00:55.307Z,99165.53
2023-02-13T01:03:25.653Z,99171.78
2023-02-13T01:05:55.439Z,99170.97
2023-02-13T01:08:22.755Z,99169.31
2023-02-13T01:10:52.594Z,99165.03
2023-02-13T01:13:22.178Z,99161.69
2023-02-13T01:15:50.544Z,99159.38
2023-02-13T01:18:21.457Z,99160.38
2023-02-13T01:21:14.946Z,99156.75
2023-02-13T01:23:41.964Z,99154.75
2023-02-13T01:26:16.478Z,99158.91
2023-02-13T01:28:46.725Z,99155.13
2023-02-13T01:31:16.278Z,99143.72
2023-02-13T01:33:43.252Z,99135.97
2023-02-13T01:36:14.571Z,99122.59
2023-02-13T01:38:41.662Z,99124.06
2023-02-13T01:41:10.727Z,99115.97
2023-02-13T01:43:46.032Z,99107.88
2023-02-13T01:46:14.173Z,99108.06
2023-02-13T01:48:41.207Z,99112.69
2023-02-13T01:51:10.785Z,99108.41
2023-02-13T01:53:52.453Z,99101.28
2023-02-13T01:56:30.037Z,99094.38
2023-02-13T01:59:00.184Z,99089.91
2023-02-13T02:01:29.233Z,99083.78
2023-02-13T02:04:00.471Z,99081.31
2023-02-13T02:06:34.731Z,99083.97
2023-02-13T02:09:04.018Z,99082.97
2023-02-13T02:11:45.075Z,99079.16
2023-02-13T02:14:11.989Z,99077.00
2023-02-13T02:17:05.892Z,99070.56
2023-02-13T02:19:41.884Z,99064.94
2023-02-13T02:22:09.687Z,99068.06
2023-02-13T02:24:45.731Z,99065.44
2023-02-13T02:27:15.875Z,99065.91
2023-02-13T02:29:54.726Z,99063.28
2023-02-13T02:32:21.669Z,99054.34
2023-02-13T02:35:00.984Z,99043.44
2023-02-13T02:37:31.968Z,99037.97
2023-02-13T02:40:23.205Z,99036.03
2023-02-13T02:43:07.040Z,99030.38
2023-02-13T02:45:36.809Z,99029.88
2023-02-13T02:48:42.345Z,99020.78
2023-02-13T02:51:15.053Z,99019.59
2023-02-13T02:53:45.553Z,99018.25
2023-02-13T02:56:23.135Z,99013.63
2023-02-13T02:59:14.392Z,99005.34
2023-02-13T03:02:00.350Z,99002.53
2023-02-13T03:04:57.191Z,99004.19
2023-02-13T03:07:23.961Z,99005.00
2023-02-13T03:10:12.380Z,98986.31
2023-02-13T03:13:00.926Z,98990.47
2023-02-13T03:15:28.978Z,98991.28
2023-02-13T03:18:14.830Z,98981.38
2023-02-13T03:21:23.714Z,98992.59
2023-02-13T03:23:58.818Z,98979.19
2023-02-13T03:26:33.354Z,98971.91
2023-02-13T03:29:29.188Z,98972.56
2023-02-13T03:32:03.908Z,98970.22
2023-02-13T03:34:54.820Z,98963.75
2023-02-13T03:37:45.791Z,98954.81
2023-02-13T03:40:16.975Z,98939.41
2023-02-13T03:42:55.752Z,98929.94
2023-02-13T03:45:53.052Z,98919.50
2023-02-13T03:48:42.523Z,98916.50
2023-02-13T03:51:10.522Z,98915.97
2023-02-13T03:53:38.530Z,98917.63
2023-02-13T03:56:25.449Z,98921.72
2023-02-13T03:59:13.603Z,98923.38
2023-02-13T04:01:41.288Z,98925.84
2023-02-13T04:04:20.229Z,98914.44
2023-02-13T04:06:49.527Z,98920.53
2023-02-13T04:09:17.227Z,98919.72
2023-02-13T04:11:57.686Z,98917.25
2023-02-13T04:14:50.813Z,98901.84
2023-02-13T04:17:27.219Z,98904.13
2023-02-13T04:19:54.774Z,98900.31
2023-02-13T04:22:21.643Z,98897.16
2023-02-13T04:24:48.969Z,98891.50
2023-02-13T04:27:16.908Z,98871.59
2023-02-13T04:29:44.065Z,98861.66
2023-02-13T04:32:11.751Z,98870.22
2023-02-13T04:34:38.712Z,98860.47
2023-02-13T04:37:05.594Z,98860.66
2023-02-13T04:39:37.617Z,98860.47
2023-02-13T04:42:04.663Z,98863.13
2023-02-13T04:44:33.563Z,98853.72
2023-02-13T04:47:00.482Z,98843.94
2023-02-13T04:49:27.365Z,98842.13
2023-02-13T04:51:54.652Z,98834.81
2023-02-13T04:54:21.613Z,98844.22
2023-02-13T04:56:48.529Z,98834.25
2023-02-13T04:59:15.465Z,98820.84
2023-02-13T05:01:42.473Z,98816.81
2023-02-13T05:04:12.109Z,98816.00
2023-02-13T05:06:42.045Z,98816.81
2023-02-13T05:09:14.230Z,98814.81
2023-02-13T05:11:41.166Z,98816.31
2023-02-13T05:14:08.228Z,98804.53
2023-02-13T05:16:35.115Z,98807.81
2023-02-13T05:19:02.392Z,98797.03
2023-02-13T05:21:47.905Z,98796.84
2023-02-13T05:24:14.712Z,98807.88
2023-02-13T05:26:41.676Z,98806.69
2023-02-13T05:29:22.791Z,98803.22
2023-02-13T05:31:51.330Z,98803.88
2023-02-13T05:34:18.442Z,98787.22
2023-02-13T05:36:45.320Z,98797.66
2023-02-13T05:39:12.240Z,98781.56
2023-02-13T05:41:39.125Z,98787.31
2023-02-13T05:44:05.961Z,98792.06
2023-02-13T05:46:32.988Z,98787.03
2023-02-13T05:48:59.967Z,98795.44
2023-02-13T05:51:26.984Z,98794.03
2023-02-13T05:53:53.844Z,98790.00
2023-02-13T05:56:20.880Z,98799.03
2023-02-13T05:58:47.704Z,98795.19
2023-02-13T06:01:14.710Z,98794.84
2023-02-13T06:03:43.762Z,98793.47
2023-02-13T06:06:10.745Z,98797.19
2023-02-13T06:08:37.737Z,98798.06
2023-02-13T06:11:04.838Z,98789.16
2023-02-13T06:13:31.818Z,98789.44
2023-02-13T06:15:58.686Z,98787.44
2023-02-13T06:18:25.612Z,98787.22
2023-02-13T06:20:52.440Z,98788.50
2023-02-13T06:23:19.512Z,98800.56
2023-02-13T06:25:46.643Z,98776.50
2023-02-13T06:28:13.699Z,98789.56
2023-02-13T06:30:40.885Z,98780.22
2023-02-13T06:33:07.772Z,98783.50
2023-02-13T06:35:34.561Z,98778.38
2023-02-13T06:38:01.397Z,98778.19
2023-02-13T06:40:28.280Z,98780.44
2023-02-13T06:42:55.400Z,98768.63
2023-02-13T06:45:22.296Z,98765.16
2023-02-13T06:47:49.321Z,98754.19
2023-02-13T06:50:17.560Z,98761.97
2023-02-13T06:52:51.537Z,98754.44
2023-02-13T06:55:19.022Z,98762.00
2023-02-13T06:57:46.061Z,98757.53
2023-02-13T07:00:14.143Z,98757.09
2023-02-13T07:02:42.073Z,98742.19
2023-02-13T07:05:09.647Z,98742.00
2023-02-13T07:07:37.601Z,98732.63
2023-02-13T07:10:05.259Z,98730.41
2023-02-13T07:12:36.804Z,98729.63
2023-02-13T07:15:04.381Z,98727.41
2023-02-13T07:17:36.424Z,98730.34
2023-02-13T07:20:04.856Z,98717.91
2023-02-13T07:22:35.155Z,98719.78
2023-02-13T07:25:02.225Z,98725.16
2023-02-13T07:27:30.271Z,98715.44
2023-02-13T07:29:57.875Z,98714.44
2023-02-13T07:32:25.802Z,98708.53
2023-02-13T07:35:01.623Z,98707.38
2023-02-13T07:37:30.911Z,98701.06
2023-02-13T07:39:58.138Z,98689.44
2023-02-13T07:42:25.050Z,98695.38
2023-02-13T07:44:52.892Z,98693.16
2023-02-13T07:47:20.357Z,98683.97
2023-02-13T07:49:50.788Z,98685.19
2023-02-13T07:52:17.892Z,98687.25
2023-02-13T07:54:48.020Z,98687.03
2023-02-13T07:57:18.396Z,98674.56
2023-02-13T07:59:45.583Z,98690.56
2023-02-13T08:02:14.385Z,98683.41
2023-02-13T08:04:42.007Z,98678.50
2023-02-13T08:07:08.925Z,98686.88
2023-02-13T08:09:57.809Z,98679.94
2023-02-13T08:12:25.193Z,98676.25
2023-02-13T08:14:53.330Z,98674.19
2023-02-13T08:17:20.296Z,98670.31
2023-02-13T08:19:47.201Z,98656.41
2023-02-13T08:22:18.572Z,98661.31
2023-02-13T08:24:48.533Z,98659.88
2023-02-13T08:27:16.166Z,98642.09
2023-02-13T08:29:46.898Z,98655.19
2023-02-13T08:32:24.248Z,98638.00
2023-02-13T08:34:52.142Z,98645.16
2023-02-13T08:37:21.473Z,98640.03
2023-02-13T08:39:48.433Z,98625.72
2023-02-13T08:42:16.287Z,98623.88
2023-02-13T08:44:43.408Z,98640.03
2023-02-13T08:47:35.416Z,98631.44
2023-02-13T08:50:02.408Z,98605.06
2023-02-13T08:52:30.893Z,98642.50
2023-02-13T08:54:57.896Z,98622.25
2023-02-13T08:57:24.815Z,98602.19
2023-02-13T08:59:51.913Z,98613.44
2023-02-13T09:02:19.814Z,98611.59
2023-02-13T09:04:54.003Z,98610.56
2023-02-13T09:07:21.050Z,98616.06
2023-02-13T09:09:50.601Z,98612.97
2023-02-13T09:12:20.691Z,98608.47
2023-02-13T09:14:50.306Z,98602.34
2023-02-13T09:17:20.266Z,98600.91
2023-02-13T09:19:47.642Z,98595.59
2023-02-13T09:22:17.684Z,98605.81
2023-02-13T09:24:44.890Z,98598.06
2023-02-13T09:27:11.901Z,98590.25
2023-02-13T09:29:38.859Z,98588.38
2023-02-13T09:32:07.326Z,98585.47
2023-02-13T09:34:37.548Z,98569.72
2023-02-13T09:37:09.272Z,98563.75
2023-02-13T09:39:36.540Z,98556.13
2023-02-13T09:42:08.827Z,98554.22
2023-02-13T09:44:40.208Z,98547.84
2023-02-13T09:47:07.379Z,98539.56
2023-02-13T09:49:37.344Z,98529.84
2023-02-13T09:52:09.137Z,98521.78
2023-02-13T09:54:36.425Z,98524.53
2023-02-13T09:57:15.528Z,98531.97
2023-02-13T09:59:46.805Z,98533.31
2023-02-13T10:02:32.806Z,98531.22
2023-02-13T10:05:05.512Z,98526.47
2023-02-13T10:07:32.381Z,98523.56
2023-02-13T10:10:20.217Z,98518.03
2023-02-13T10:12:56.794Z,98525.00
2023-02-13T10:15:23.659Z,98511.50
2023-02-13T10:18:03.006Z,98517.88
2023-02-13T10:20:36.745Z,98512.31
2023-02-13T10:23:12.475Z,98517.06
2023-02-13T10:25:49.483Z,98524.25
2023-02-13T10:28:19.406Z,98512.38
2023-02-13T10:30:54.537Z,98525.13
2023-02-13T10:33:21.847Z,98518.94
2023-02-13T10:36:03.073Z,98519.78
2023-02-13T10:38:31.705Z,98516.09
2023-02-13T10:41:18.912Z,98512.59
2023-02-13T10:44:01.123Z,98503.34
2023-02-13T10:46:34.160Z,98502.31
2023-02-13T10:49:00.963Z,98497.34
2023-02-13T10:51:36.087Z,98494.47
2023-02-13T10:54:18.796Z,98490.31
2023-02-13T10:56:45.742Z,98478.16
2023-02-13T10:59:16.035Z,98470.38
2023-02-13T11:01:53.960Z,98462.38
2023-02-13T11:04:21.047Z,98461.31
2023-02-13T11:07:01.878Z,98446.94
2023-02-13T11:09:31.570Z,98448.81
2023-02-13T11:11:58.529Z,98441.16
2023-02-13T11:14:26.899Z,98434.06
2023-02-13T11:16:54.088Z,98437.00
2023-02-13T11:19:27.962Z,98428.25
2023-02-13T11:22:00.741Z,98434.91
2023-02-13T11:24:28.377Z,98431.13
2023-02-13T11:27:12.999Z,98432.28
2023-02-13T11:29:55.088Z,98429.38
2023-02-13T11:32:24.811Z,98426.13
2023-02-13T11:34:52.310Z,98435.41
2023-02-13T11:37:21.410Z,98428.91
2023-02-13T11:39:51.301Z,98426.00
2023-02-13T11:42:29.607Z,98406.72
2023-02-13T11:44:59.765Z,98411.84
2023-02-13T11:47:34.400Z,98395.81
2023-02-13T11:50:01.684Z,98397.66
2023-02-13T11:52:32.592Z,98398.25
2023-02-13T11:55:28.081Z,98397.22
2023-02-13T11:58:10.533Z,98390.00
2023-02-13T12:00:41.828Z,98379.34
2023-02-13T12:03:25.093Z,98375.38
2023-02-13T12:06:14.234Z,98364.59
2023-02-13T12:08:42.493Z,98380.97
2023-02-13T12:11:24.937Z,98367.56
2023-02-13T12:13:55.284Z,98356.53
2023-02-13T12:16:45.773Z,98363.16
2023-02-13T12:19:20.064Z,98363.16
2023-02-13T12:22:06.663Z,98348.63
2023-02-13T12:24:45.236Z,98352.22
2023-02-13T12:27:31.524Z,98352.47
2023-02-13T12:30:19.517Z,98367.91
2023-02-13T12:33:18.195Z,98363.03
2023-02-13T12:36:01.518Z,98357.09
2023-02-13T12:38:51.827Z,98351.38
2023-02-13T12:41:21.638Z,98351.03
2023-02-13T12:44:01.122Z,98341.03
2023-02-13T12:47:14.193Z,98356.47
2023-02-13T12:53:10.347Z,98336.03
2023-02-13T12:55:49.270Z,98334.16
2023-02-13T12:58:37.929Z,98323.50
2023-02-13T13:01:17.857Z,98322.44
2023-02-13T13:04:23.215Z,98329.63
2023-02-13T13:06:53.183Z,98315.47
2023-02-13T13:09:29.482Z,98312.34
2023-02-13T13:11:56.360Z,98310.38
2023-02-13T13:14:35.742Z,98308.63
2023-02-13T13:17:21.494Z,98308.78
2023-02-13T13:19:54.768Z,98301.81
2023-02-13T13:22:35.640Z,98301.81
2023-02-13T13:25:03.074Z,98298.34
2023-02-13T13:27:36.284Z,98308.22
2023-02-13T13:30:05.410Z,98306.19
2023-02-13T13:32:33.482Z,98306.66
2023-02-13T13:35:01.062Z,98307.94
2023-02-13T13:37:36.100Z,98315.38
2023-02-13T13:40:24.606Z,98314.78
2023-02-13T13:42:56.030Z,98300.97
2023-02-13T13:45:22.824Z,98294.69
2023-02-13T13:48:19.251Z,98297.81
2023-02-13T13:50:46.957Z,98293.28
2023-02-13T13:53:21.097Z,98294.53
2023-02-13T13:56:10.626Z,98285.13
2023-02-13T13:59:02.619Z,98281.41
2023-02-13T14:01:31.135Z,98284.66
2023-02-13T14:04:49.091Z,98276.44
2023-02-13T14:07:23.114Z,98274.78
2023-02-13T14:09:50.426Z,98274.22
2023-02-13T14:12:30.100Z,98275.25
2023-02-13T14:14:59.126Z,98269.91
2023-02-13T14:17:44.399Z,98271.53
2023-02-13T14:20:31.438Z,98268.53
2023-02-13T14:23:06.599Z,98258.88
2023-02-13T14:25:33.681Z,98242.88
2023-02-13T14:28:05.130Z,98249.03
2023-02-13T14:30:50.177Z,98245.31
2023-02-13T14:33:26.148Z,98242.63
2023-02-13T14:36:07.876Z,98242.06
2023-02-13T14:38:36.555Z,98246.34
2023-02-13T14:41:05.744Z,98239.97
2023-02-13T14:43:47.634Z,98240.19
2023-02-13T14:46:21.148Z,98230.56
2023-02-13T14:48:48.350Z,98238.56
2023-02-13T14:51:28.813Z,98232.44
2023-02-13T14:54:01.786Z,98224.41
2023-02-13T14:56:30.678Z,98223.13
2023-02-13T14:59:17.863Z,98219.19
2023-02-13T15:01:58.064Z,98218.38
2023-02-13T15:04:37.931Z,98210.38
2023-02-13T15:07:07.803Z,98207.47
2023-02-13T15:09:39.071Z,98190.28
2023-02-13T15:12:25.375Z,98195.06
2023-02-13T15:14:52.284Z,98184.03
2023-02-13T15:17:22.105Z,98172.19
2023-02-13T15:19:50.505Z,98159.88
2023-02-13T15:22:19.349Z,98155.59
2023-02-13T15:24:47.554Z,98144.34
2023-02-13T15:27:40.603Z,98148.06
2023-02-13T15:30:27.717Z,98152.81
2023-02-13T15:32:59.780Z,98150.38
2023-02-13T15:35:29.795Z,98154.66
2023-02-13T15:37:59.899Z,98150.16
2023-02-13T15:40:28.909Z,98142.13
2023-02-13T15:42:57.706Z,98132.28
2023-02-13T15:45:26.052Z,98124.84
2023-02-13T15:47:56.418Z,98106.97
2023-02-13T15:50:34.403Z,98112.78
2023-02-13T15:53:03.257Z,98110.13
2023-02-13T15:55:32.079Z,98113.59
2023-02-13T15:58:24.160Z,98109.88
2023-02-13T16:00:50.994Z,98097.81
2023-02-13T16:03:18.545Z,98098.88
2023-02-13T16:05:46.040Z,98102.34
2023-02-13T16:08:33.285Z,98087.16
2023-02-13T16:11:18.764Z,98091.91
2023-02-13T16:14:00.232Z,98091.31
2023-02-13T16:16:27.830Z,98085.16
2023-02-13T16:18:57.635Z,98084.34
2023-02-13T16:21:25.777Z,98084.13
2023-02-13T16:24:04.400Z,98082.03
2023-02-13T16:26:31.716Z,98084.25
2023-02-13T16:28:58.782Z,98074.16
2023-02-13T16:31:25.889Z,98061.63
2023-02-13T16:33:52.788Z,98064.06
2023-02-13T16:36:27.484Z,98049.91
2023-02-13T16:38:54.784Z,98042.47
2023-02-13T16:41:25.103Z,98042.81
2023-02-13T16:44:02.896Z,98039.91
2023-02-13T16:46:43.063Z,98038.84
2023-02-13T16:49:10.583Z,98032.47
2023-02-13T16:55:28.306Z,98005.53
2023-02-13T16:58:01.286Z,97999.97
2023-02-13T17:00:29.786Z,98005.88
2023-02-13T17:02:56.712Z,97999.25
2023-02-13T17:05:50.242Z,97992.63
2023-02-13T17:08:17.452Z,97978.84
2023-02-13T17:11:00.943Z,97992.19
2023-02-13T17:13:28.341Z,97979.06
2023-02-13T17:15:57.869Z,97983.13
2023-02-13T17:18:24.830Z,97982.31
2023-02-13T17:20:51.894Z,97978.59
2023-02-13T17:23:23.670Z,97972.22
2023-02-13T17:25:52.765Z,97975.13
2023-02-13T17:28:24.515Z,97974.88
2023-02-13T17:30:52.765Z,97977.56
2023-02-13T17:33:22.052Z,97966.88
2023-02-13T17:35:49.554Z,97955.16
2023-02-13T17:38:16.866Z,97957.34
2023-02-13T17:40:46.801Z,97952.81
2023-02-13T17:43:14.886Z,97941.56
2023-02-13T17:45:42.170Z,97940.19
2023-02-13T17:48:10.201Z,97942.03
2023-02-13T17:50:37.882Z,97927.88
2023-02-13T17:53:06.267Z,97914.78
2023-02-13T17:55:43.637Z,97921.72
2023-02-13T17:58:10.377Z,97912.91
2023-02-13T18:00:40.732Z,97918.25
2023-02-13T18:03:07.587Z,97910.47
2023-02-13T18:05:34.667Z,97905.38
2023-02-13T18:08:10.684Z,97899.19
2023-02-13T18:11:03.953Z,97900.50
2023-02-13T18:18:03.240Z,97887.72
2023-02-13T18:20:39.652Z,97880.31
2023-02-13T18:23:09.705Z,97876.81
2023-02-13T18:25:37.271Z,97878.44
2023-02-13T18:28:04.677Z,97869.84
2023-02-13T18:30:32.039Z,97872.50
2023-02-13T18:32:59.471Z,97869.03
2023-02-13T18:35:26.284Z,97871.69
2023-02-13T18:37:53.231Z,97854.88
2023-02-13T18:40:24.472Z,97845.00
2023-02-13T18:42:52.530Z,97853.00
2023-02-13T18:45:19.555Z,97838.84
2023-02-13T18:47:46.330Z,97837.81
2023-02-13T18:50:14.135Z,97827.97
2023-02-13T18:52:41.099Z,97824.00
2023-02-13T18:55:08.081Z,97824.25
2023-02-13T18:57:46.117Z,97817.28
2023-02-13T19:00:26.696Z,97817.28
2023-02-13T19:03:00.579Z,97813.78
2023-02-13T19:05:44.193Z,97816.44
2023-02-13T19:08:23.690Z,97800.44
2023-02-13T19:10:59.099Z,97802.91
2023-02-13T19:13:29.260Z,97816.25
2023-02-13T19:15:57.321Z,97796.75
2023-02-13T19:18:26.523Z,97790.34
2023-02-13T19:20:59.393Z,97790.34
2023-02-13T19:23:34.023Z,97793.03
2023-02-13T19:26:05.940Z,97778.88
2023-02-13T19:28:34.218Z,97787.69
2023-02-13T19:31:09.127Z,97761.44
2023-02-13T19:33:37.516Z,97765.72
2023-02-13T19:36:05.913Z,97773.53
2023-02-13T19:38:32.739Z,97762.03
2023-02-13T19:41:04.114Z,97759.94
2023-02-13T19:43:30.924Z,97766.91
2023-02-13T19:46:01.723Z,97779.44
2023-02-13T19:48:28.791Z,97764.72
2023-02-13T19:50:55.683Z,97763.06
2023-02-13T19:53:22.567Z,97774.56
2023-02-13T19:55:49.310Z,97763.91
2023-02-13T19:58:16.117Z,97766.78
2023-02-13T20:00:43.133Z,97762.50
2023-02-13T20:03:12.215Z,97767.03
2023-02-13T20:05:40.351Z,97760.06
2023-02-13T20:08:07.214Z,97770.50
2023-02-13T20:10:34.066Z,97775.03
2023-02-13T20:13:01.142Z,97766.22
2023-02-13T20:15:28.074Z,97759.81
2023-02-13T20:17:54.909Z,97771.31
2023-02-13T20:20:21.830Z,97761.44
2023-02-13T20:22:49.211Z,97773.97
2023-02-13T20:25:18.690Z,97759.59
2023-02-13T20:27:45.620Z,97785.72
2023-02-13T20:30:13.861Z,97778.50
2023-02-13T20:32:41.790Z,97776.66
2023-02-13T20:35:08.738Z,97779.31
2023-02-13T20:37:35.878Z,97767.84
2023-02-13T20:40:04.098Z,97776.41
2023-02-13T20:42:33.052Z,97779.91
2023-02-13T20:45:00.255Z,97775.84
2023-02-13T20:47:27.238Z,97787.00
2023-02-13T20:49:54.447Z,97763.47
2023-02-13T20:52:21.331Z,97784.25
2023-02-13T20:54:48.144Z,97766.88
2023-02-13T20:57:15.749Z,97795.16
2023-02-13T20:59:52.657Z,97774.38
2023-02-13T21:02:25.858Z,97783.44
2023-02-13T21:05:00.303Z,97780.53
2023-02-13T21:07:27.224Z,97775.75
2023-02-13T21:09:54.329Z,97803.25
2023-02-13T21:12:21.309Z,97782.97
2023-02-13T21:14:48.237Z,97785.63
2023-02-13T21:17:15.058Z,97786.44
2023-02-13T21:19:41.971Z,97782.16
2023-02-13T21:22:12.336Z,97788.28
2023-02-13T21:24:40.553Z,97776.00
2023-02-13T21:27:08.039Z,97781.34
2023-02-13T21:29:35.909Z,97787.50
2023-02-13T21:32:03.567Z,97776.00
2023-02-13T21:34:30.472Z,97791.22
2023-02-13T21:36:57.382Z,97784.81
2023-02-13T21:39:26.243Z,97789.91
2023-02-13T21:41:53.092Z,97785.94
2023-02-13T21:44:20.134Z,97783.84
2023-02-13T21:46:47.078Z,97797.75
2023-02-13T21:49:15.374Z,97787.44
2023-02-13T21:51:42.189Z,97779.19
2023-02-13T21:54:09.747Z,97771.19
2023-02-13T21:56:40.505Z,97776.84
2023-02-13T21:59:07.838Z,97791.31
2023-02-13T22:01:44.883Z,97794.31
2023-02-13T22:04:11.752Z,97816.97
2023-02-13T22:06:39.903Z,97796.09
2023-02-13T22:09:11.339Z,97802.50
2023-02-13T22:11:38.294Z,97797.41
2023-02-13T22:14:05.985Z,97810.97
2023-02-13T22:16:35.071Z,97789.88
2023-02-13T22:19:02.003Z,97810.41
2023-02-13T22:21:29.921Z,97805.31
2023-02-13T22:23:57.193Z,97806.38
2023-02-13T22:26:34.574Z,97797.56
2023-02-13T22:29:03.896Z,97803.94
2023-02-13T22:31:31.298Z,97818.56
2023-02-13T22:34:03.793Z,97810.53
2023-02-13T22:36:32.021Z,97819.38
2023-02-13T22:38:58.918Z,97814.84
2023-02-13T22:41:26.534Z,97810.09
2023-02-13T22:43:53.382Z,97806.63
2023-02-13T22:46:24.786Z,97819.72
2023-02-13T22:48:55.118Z,97819.47
2023-02-13T22:51:32.586Z,97809.59
2023-02-13T22:54:00.083Z,97815.50
2023-02-13T22:56:28.034Z,97823.84
2023-02-13T22:58:54.986Z,97821.75
2023-02-13T23:01:23.730Z,97819.88
2023-02-13T23:03:50.717Z,97814.53
2023-02-13T23:06:17.883Z,97808.16
2023-02-13T23:08:45.534Z,97809.19
2023-02-13T23:11:32.431Z,97815.59
2023-02-13T23:13:59.272Z,97823.59
2023-02-13T23:16:26.141Z,97832.66
2023-02-13T23:18:53.978Z,97828.38
2023-02-13T23:21:21.172Z,97851.34
2023-02-13T23:23:48.449Z,97820.94
2023-02-13T23:26:15.605Z,97831.63
2023-02-13T23:28:42.468Z,97830.81
2023-02-13T23:31:09.385Z,97838.00
2023-02-13T23:33:36.284Z,97827.09
2023-02-13T23:36:03.087Z,97831.63
2023-02-13T23:38:29.838Z,97831.63
2023-02-13T23:40:56.714Z,97836.16
2023-02-13T23:43:23.540Z,97836.72
2023-02-13T23:45:50.307Z,97850.63
2023-02-13T23:48:18.331Z,97838.91
2023-02-13T23:50:47.509Z,97849.00
2023-02-13T23:53:14.286Z,97844.25
2023-02-13T23:55:41.015Z,97843.44
2023-02-13T23:58:07.801Z,97852.25
